Time;durP1;ratioP1;P1;durP2;ratioP2;P2;SDS_P1;SDS_P2;PMS_P1;PMS_P2;Temp;Humidity;BMP_temperature;BMP_pressure;BME280_temperature;BME280_humidity;BME280_pressure;Samples;Min_cycle;Max_cycle;Signal;HPM_P1;HPM_P2
2024/04/09 00:00:23;;;;;;;19.70;4.53;;;18.20;99.90;;;;;;2250680;26;20347;-69
2024/04/09 00:01:24;;;;;;;18.45;4.65;;;18.20;99.90;;;;;;2247924;26;19999;-69
2024/04/09 00:02:24;;;;;;;11.63;3.55;;;18.20;99.90;;;;;;2245223;26;20000;-69
2024/04/09 00:03:25;;;;;;;10.48;4.07;;;18.20;99.90;;;;;;2245782;26;20013;-68
2024/04/09 00:04:27;;;;;;;17.67;4.18;;;18.20;99.90;;;;;;2242998;26;20031;-69
2024/04/09 00:05:37;;;;;;;17.05;4.70;;;18.20;99.90;;;;;;2248507;26;20006;-68
2024/04/09 00:06:37;;;;;;;;;;;18.20;99.90;;;;;;2245469;26;19999;-70
2024/04/09 00:07:38;;;;;;;13.38;4.47;;;18.10;99.90;;;;;;2248815;26;19928;-69
2024/04/09 00:08:39;;;;;;;15.43;4.88;;;18.10;99.90;;;;;;2251766;26;20014;-70
2024/04/09 00:09:46;;;;;;;11.05;3.90;;;18.20;99.90;;;;;;2243706;26;20570;-69
2024/04/09 00:10:47;;;;;;;19.55;4.32;;;18.20;99.90;;;;;;2245686;26;20035;-69
2024/04/09 00:11:49;;;;;;;18.73;5.45;;;18.20;99.90;;;;;;2246373;26;19999;-69
2024/04/09 00:12:50;;;;;;;10.98;4.03;;;18.20;99.90;;;;;;2244504;26;20363;-68
2024/04/09 00:13:57;;;;;;;11.73;4.50;;;18.20;99.90;;;;;;2244103;26;20003;-68
2024/04/09 00:14:59;;;;;;;10.73;4.13;;;18.10;99.90;;;;;;2245875;26;20025;-70
2024/04/09 00:16:00;;;;;;;11.98;4.07;;;18.10;99.90;;;;;;2241283;26;20023;-69
2024/04/09 00:17:01;;;;;;;13.52;4.40;;;18.10;99.90;;;;;;2246573;26;20461;-70
2024/04/09 00:18:12;;;;;;;14.13;4.20;;;18.20;99.90;;;;;;2241837;26;19999;-68
2024/04/09 00:19:14;;;;;;;14.93;4.50;;;18.20;99.90;;;;;;2246120;26;21020;-69
2024/04/09 00:20:18;;;;;;;11.00;4.25;;;18.10;99.90;;;;;;2241273;26;20015;-69
2024/04/09 00:21:18;;;;;;;19.95;5.20;;;18.10;99.90;;;;;;2246307;26;20022;-69
2024/04/09 00:22:19;;;;;;;17.52;4.63;;;18.10;99.90;;;;;;2245225;26;20038;-68
2024/04/09 00:23:22;;;;;;;15.43;4.43;;;18.10;99.90;;;;;;2242569;26;20003;-69
2024/04/09 00:24:25;;;;;;;23.45;4.82;;;18.10;99.90;;;;;;2243872;26;20008;-69
2024/04/09 00:25:26;;;;;;;16.98;4.10;;;18.10;99.90;;;;;;2240940;26;20003;-70
2024/04/09 00:26:29;;;;;;;14.27;4.57;;;18.10;99.90;;;;;;2246468;26;20000;-69
2024/04/09 00:27:29;;;;;;;12.10;4.18;;;18.10;99.90;;;;;;2240933;26;20344;-69
2024/04/09 00:28:30;;;;;;;15.95;3.65;;;18.00;99.90;;;;;;2241013;26;19998;-69
2024/04/09 00:29:31;;;;;;;16.70;4.15;;;18.00;99.90;;;;;;2245516;26;20003;-69
2024/04/09 00:30:34;;;;;;;13.15;4.13;;;18.00;99.90;;;;;;2245499;26;20014;-68
2024/04/09 00:31:34;;;;;;;10.27;3.65;;;18.00;99.90;;;;;;2247520;26;19999;-69
2024/04/09 00:32:36;;;;;;;14.27;4.10;;;18.00;99.90;;;;;;2249543;26;20507;-69
2024/04/09 00:33:36;;;;;;;17.48;4.28;;;18.00;99.90;;;;;;2244325;26;20068;-68
2024/04/09 00:34:37;;;;;;;14.98;4.03;;;18.00;99.90;;;;;;2244925;26;20853;-69
2024/04/09 00:35:37;;;;;;;19.85;4.78;;;18.00;99.90;;;;;;2242921;26;20511;-69
2024/04/09 00:36:38;;;;;;;13.52;4.82;;;18.00;99.90;;;;;;2249844;26;20029;-69
2024/04/09 00:37:41;;;;;;;13.73;4.40;;;18.00;99.90;;;;;;2249611;26;19995;-69
2024/04/09 00:38:46;;;;;;;18.55;4.30;;;18.00;99.90;;;;;;2244803;26;20375;-69
2024/04/09 00:39:47;;;;;;;13.80;4.18;;;18.00;99.90;;;;;;2243909;26;20068;-69
2024/04/09 00:40:49;;;;;;;14.77;3.88;;;18.00;99.90;;;;;;2243194;26;19999;-69
2024/04/09 00:41:50;;;;;;;12.18;3.70;;;18.00;99.90;;;;;;2245519;26;20068;-68
2024/04/09 00:42:53;;;;;;;15.30;4.55;;;18.00;99.90;;;;;;2247348;26;20011;-69
2024/04/09 00:43:53;;;;;;;14.77;4.00;;;18.00;99.90;;;;;;2241956;26;20000;-69
2024/04/09 00:44:54;;;;;;;13.52;4.03;;;18.00;99.90;;;;;;2241980;26;19999;-69
2024/04/09 00:45:55;;;;;;;13.70;3.53;;;18.00;99.90;;;;;;2246007;26;20542;-70
2024/04/09 00:46:56;;;;;;;11.18;4.10;;;18.00;99.90;;;;;;2247626;26;20007;-69
2024/04/09 00:47:59;;;;;;;14.70;4.00;;;18.00;99.90;;;;;;2242028;26;20007;-67
2024/04/09 00:49:01;;;;;;;9.95;4.00;;;18.00;99.90;;;;;;2243268;26;19999;-67
2024/04/09 00:50:04;;;;;;;13.93;4.00;;;18.00;99.90;;;;;;2242677;26;20004;-68
2024/04/09 00:51:05;;;;;;;16.88;3.90;;;18.00;99.90;;;;;;2244603;26;20512;-67
2024/04/09 00:52:07;;;;;;;12.07;4.07;;;18.00;99.90;;;;;;2245535;26;20335;-69
2024/04/09 00:53:11;;;;;;;18.63;3.85;;;18.00;99.90;;;;;;2241620;26;20015;-69
2024/04/09 00:54:12;;;;;;;15.05;5.03;;;18.00;99.90;;;;;;2243251;26;19998;-68
2024/04/09 00:55:15;;;;;;;16.88;4.45;;;17.90;99.90;;;;;;2246030;26;20014;-67
2024/04/09 00:56:16;;;;;;;15.55;4.30;;;17.90;99.90;;;;;;2245966;26;20011;-67
2024/04/09 00:57:17;;;;;;;14.18;4.90;;;17.90;99.90;;;;;;2241413;26;20014;-67
2024/04/09 00:58:19;;;;;;;15.13;4.68;;;17.90;99.90;;;;;;2244162;26;20006;-69
2024/04/09 00:59:21;;;;;;;16.20;4.30;;;17.90;99.90;;;;;;2244226;26;20395;-69
2024/04/09 01:00:22;;;;;;;14.57;4.13;;;17.90;99.90;;;;;;2245386;26;20007;-69
2024/04/09 01:01:26;;;;;;;11.23;3.80;;;17.90;99.90;;;;;;2243722;26;20043;-70
2024/04/09 01:02:27;;;;;;;13.55;3.90;;;17.90;99.90;;;;;;2244717;26;20344;-69
2024/04/09 01:03:27;;;;;;;15.27;3.38;;;17.90;99.90;;;;;;2244882;26;20055;-68
2024/04/09 01:04:28;;;;;;;19.83;5.28;;;17.90;99.90;;;;;;2245433;26;20415;-68
2024/04/09 01:05:30;;;;;;;13.00;4.65;;;17.90;99.90;;;;;;2244043;26;20008;-68
2024/04/09 01:06:31;;;;;;;14.57;4.10;;;17.90;99.90;;;;;;2244407;26;20371;-68
2024/04/09 01:07:32;;;;;;;16.90;4.55;;;17.90;99.90;;;;;;2245079;26;20002;-69
2024/04/09 01:08:33;;;;;;;11.40;3.80;;;17.90;99.90;;;;;;2242728;26;20003;-69
2024/04/09 01:09:40;;;;;;;10.60;3.70;;;17.90;99.90;;;;;;2241463;26;20072;-69
2024/04/09 01:10:41;;;;;;;13.20;3.75;;;17.90;99.90;;;;;;2233732;26;20000;-69
2024/04/09 01:11:41;;;;;;;14.20;4.25;;;17.90;99.90;;;;;;2249616;26;20741;-69
2024/04/09 01:12:42;;;;;;;12.18;3.38;;;17.90;99.90;;;;;;2243640;26;20007;-69
2024/04/09 01:13:42;;;;;;;12.40;4.10;;;17.90;99.90;;;;;;2243745;26;20007;-69
2024/04/09 01:14:43;;;;;;;24.83;4.78;;;17.90;99.90;;;;;;2248570;26;20011;-69
2024/04/09 01:15:43;;;;;;;12.60;3.47;;;17.90;99.90;;;;;;2251489;26;20095;-69
2024/04/09 01:16:44;;;;;;;10.82;4.30;;;17.90;99.90;;;;;;2240934;26;20420;-69
2024/04/09 01:17:44;;;;;;;19.33;4.45;;;17.90;99.90;;;;;;2243180;26;20443;-69
2024/04/09 01:18:45;;;;;;;14.90;4.38;;;17.80;99.90;;;;;;2243277;26;20065;-69
2024/04/09 01:19:46;;;;;;;16.98;4.80;;;17.80;99.90;;;;;;2243894;26;20003;-69
2024/04/09 01:20:46;;;;;;;16.55;5.18;;;17.80;99.90;;;;;;2244157;26;20018;-69
2024/04/09 01:21:47;;;;;;;15.88;4.97;;;17.80;99.90;;;;;;2245808;26;20660;-69
2024/04/09 01:22:48;;;;;;;21.58;5.07;;;17.80;99.90;;;;;;2246298;26;20006;-69
2024/04/09 01:23:48;;;;;;;19.00;5.65;;;17.70;99.90;;;;;;2248162;26;19999;-69
2024/04/09 01:24:49;;;;;;;19.15;5.40;;;17.70;99.90;;;;;;2243786;26;20014;-69
2024/04/09 01:25:50;;;;;;;18.48;5.85;;;17.70;99.90;;;;;;2244630;26;20014;-69
2024/04/09 01:26:52;;;;;;;14.60;5.07;;;17.70;99.90;;;;;;2244438;26;19999;-69
2024/04/09 01:27:52;;;;;;;15.30;4.50;;;17.70;99.90;;;;;;2246717;26;20011;-69
2024/04/09 01:28:54;;;;;;;20.45;5.50;;;17.70;99.90;;;;;;2246686;26;20452;-69
2024/04/09 01:29:55;;;;;;;13.10;3.92;;;17.70;99.90;;;;;;2244687;26;20496;-69
2024/04/09 01:30:55;;;;;;;15.45;5.18;;;17.70;99.90;;;;;;2247337;26;20000;-69
2024/04/09 01:31:57;;;;;;;16.48;5.10;;;17.70;99.90;;;;;;2249344;26;19996;-69
2024/04/09 01:32:57;;;;;;;17.40;5.25;;;17.70;99.90;;;;;;2243912;26;20463;-69
2024/04/09 01:33:58;;;;;;;18.95;4.70;;;17.70;99.90;;;;;;2246968;26;22310;-69
2024/04/09 01:35:06;;;;;;;19.92;4.70;;;17.70;99.90;;;;;;2246971;26;20068;-69
2024/04/09 01:36:10;;;;;;;16.85;4.50;;;17.70;99.90;;;;;;2246254;26;20023;-69
2024/04/09 01:37:12;;;;;;;19.25;4.40;;;17.70;99.90;;;;;;2244865;26;20014;-69
2024/04/09 01:38:12;;;;;;;16.00;4.80;;;17.70;99.90;;;;;;2247198;26;20372;-69
2024/04/09 01:39:14;;;;;;;17.52;5.05;;;17.70;99.90;;;;;;2246912;26;20071;-69
2024/04/09 01:40:15;;;;;;;23.05;5.13;;;17.70;99.90;;;;;;2246855;26;20025;-69
2024/04/09 01:41:16;;;;;;;17.50;6.00;;;17.70;99.90;;;;;;2243909;26;19998;-69
2024/04/09 01:42:17;;;;;;;16.05;4.20;;;17.70;99.90;;;;;;2244446;26;20004;-69
2024/04/09 01:43:17;;;;;;;21.65;5.18;;;17.70;99.90;;;;;;2247130;26;20009;-69
2024/04/09 01:44:21;;;;;;;17.15;5.32;;;17.70;99.90;;;;;;2245529;26;20011;-70
2024/04/09 01:45:22;;;;;;;16.67;5.10;;;17.70;99.90;;;;;;2246589;26;20014;-70
2024/04/09 01:46:23;;;;;;;11.60;4.97;;;17.70;99.90;;;;;;2244583;26;20438;-70
2024/04/09 01:47:23;;;;;;;20.60;5.93;;;17.70;99.90;;;;;;2245224;26;20291;-70
2024/04/09 01:48:24;;;;;;;15.45;4.97;;;17.70;99.90;;;;;;2246658;26;19995;-70
2024/04/09 01:49:25;;;;;;;15.82;5.43;;;17.70;99.90;;;;;;2243183;26;19999;-70
2024/04/09 01:50:26;;;;;;;17.55;6.15;;;17.70;99.90;;;;;;2241857;26;20010;-70
2024/04/09 01:51:26;;;;;;;20.17;5.28;;;17.70;99.90;;;;;;2245689;26;19992;-70
2024/04/09 01:52:29;;;;;;;18.58;5.32;;;17.70;99.90;;;;;;2247155;26;20010;-70
2024/04/09 01:53:29;;;;;;;15.85;4.07;;;17.70;99.90;;;;;;2245128;26;20030;-69
2024/04/09 01:54:30;;;;;;;14.50;5.40;;;17.70;99.90;;;;;;2246125;26;20619;-70
2024/04/09 01:55:31;;;;;;;18.23;5.32;;;17.70;99.90;;;;;;2242786;26;19995;-70
2024/04/09 01:56:31;;;;;;;18.05;5.07;;;17.70;99.90;;;;;;2245923;26;20040;-70
2024/04/09 01:57:32;;;;;;;17.58;4.57;;;17.70;99.90;;;;;;2246545;26;19999;-70
2024/04/09 01:58:32;;;;;;;20.98;5.32;;;17.60;99.90;;;;;;2248616;26;20523;-70
2024/04/09 01:59:33;;;;;;;14.60;4.95;;;17.60;99.90;;;;;;2260024;26;19990;-70
2024/04/09 02:00:35;;;;;;;17.83;6.05;;;17.60;99.90;;;;;;2260530;26;20105;-70
2024/04/09 02:01:35;;;;;;;15.43;5.13;;;17.70;99.90;;;;;;2247371;26;20011;-70
2024/04/09 02:02:36;;;;;;;19.65;5.72;;;17.60;99.90;;;;;;2243668;26;19995;-70
2024/04/09 02:03:38;;;;;;;18.70;5.88;;;17.60;99.90;;;;;;2245115;26;20013;-70
2024/04/09 02:04:38;;;;;;;21.65;5.53;;;17.60;99.90;;;;;;2242116;26;20009;-70
2024/04/09 02:05:39;;;;;;;15.25;5.03;;;17.60;99.90;;;;;;2243630;26;20014;-70
2024/04/09 02:06:42;;;;;;;14.52;4.53;;;17.60;99.90;;;;;;2241228;26;20057;-70
2024/04/09 02:07:42;;;;;;;14.23;4.90;;;17.60;99.90;;;;;;2247274;26;19999;-70
2024/04/09 02:08:43;;;;;;;12.18;4.07;;;17.60;99.90;;;;;;2241926;26;20113;-70
2024/04/09 02:09:43;;;;;;;18.60;5.18;;;17.60;99.90;;;;;;2245147;26;19999;-70
2024/04/09 02:10:44;;;;;;;16.58;4.97;;;17.60;99.90;;;;;;2245501;26;19998;-70
2024/04/09 02:11:44;;;;;;;11.55;5.43;;;17.60;99.90;;;;;;2245360;26;20451;-70
2024/04/09 02:12:45;;;;;;;12.68;4.20;;;17.60;99.90;;;;;;2244126;26;20027;-70
2024/04/09 02:13:48;;;;;;;19.90;6.07;;;17.60;99.90;;;;;;2244609;26;19998;-70
2024/04/09 02:14:49;;;;;;;16.40;4.25;;;17.60;99.90;;;;;;2246826;26;19995;-70
2024/04/09 02:15:49;;;;;;;16.70;4.78;;;17.60;99.90;;;;;;2244727;26;19999;-70
2024/04/09 02:16:50;;;;;;;18.30;4.85;;;17.60;99.90;;;;;;2246511;26;20335;-70
2024/04/09 02:17:51;;;;;;;20.10;5.22;;;17.60;99.90;;;;;;2246076;26;20533;-70
2024/04/09 02:18:51;;;;;;;14.30;5.93;;;17.60;99.90;;;;;;2246918;26;20003;-70
2024/04/09 02:19:52;;;;;;;10.50;4.20;;;17.60;99.90;;;;;;2242432;26;20009;-70
2024/04/09 02:20:53;;;;;;;18.08;4.75;;;17.50;99.90;;;;;;2245431;26;20018;-70
2024/04/09 02:21:53;;;;;;;14.05;5.13;;;17.50;99.90;;;;;;2245630;26;20076;-70
2024/04/09 02:22:54;;;;;;;17.92;5.00;;;17.50;99.90;;;;;;2249206;26;20031;-70
2024/04/09 02:23:54;;;;;;;17.08;4.93;;;17.50;99.90;;;;;;2248315;26;20042;-70
2024/04/09 02:24:55;;;;;;;15.05;4.32;;;17.50;99.90;;;;;;2245190;26;20083;-69
2024/04/09 02:25:56;;;;;;;16.17;5.22;;;17.50;99.90;;;;;;2251522;26;20010;-70
2024/04/09 02:26:57;;;;;;;15.00;4.63;;;17.50;99.90;;;;;;2251001;26;20014;-70
2024/04/09 02:27:58;;;;;;;19.13;4.57;;;17.50;99.90;;;;;;2248075;26;20015;-70
2024/04/09 02:28:59;;;;;;;14.43;4.30;;;17.50;99.90;;;;;;2245971;26;20042;-70
2024/04/09 02:29:59;;;;;;;15.20;4.90;;;17.50;99.90;;;;;;2246080;26;19999;-70
2024/04/09 02:31:00;;;;;;;14.82;5.65;;;17.50;99.90;;;;;;2245412;26;20031;-70
2024/04/09 02:32:01;;;;;;;17.55;4.72;;;17.40;99.90;;;;;;2246512;26;20006;-70
2024/04/09 02:33:02;;;;;;;24.10;6.70;;;17.40;99.90;;;;;;2244774;26;20011;-70
2024/04/09 02:34:02;;;;;;;10.20;4.32;;;17.40;99.90;;;;;;2246841;26;19999;-70
2024/04/09 02:35:04;;;;;;;19.67;5.10;;;17.40;99.90;;;;;;2244394;26;20007;-70
2024/04/09 02:36:06;;;;;;;19.67;5.63;;;17.40;99.90;;;;;;2248567;26;19998;-70
2024/04/09 02:37:06;;;;;;;13.32;4.65;;;17.40;99.90;;;;;;2251247;26;20010;-70
2024/04/09 02:38:07;;;;;;;14.75;4.57;;;17.40;99.90;;;;;;2247858;26;20035;-70
2024/04/09 02:39:08;;;;;;;15.38;4.70;;;17.40;99.90;;;;;;2245178;26;20006;-70
2024/04/09 02:40:15;;;;;;;13.88;4.50;;;17.40;99.90;;;;;;2248227;26;19995;-70
2024/04/09 02:41:17;;;;;;;15.15;4.38;;;17.40;99.90;;;;;;2247314;26;20002;-70
2024/04/09 02:42:18;;;;;;;15.27;4.78;;;17.30;99.90;;;;;;2245135;26;20004;-70
2024/04/09 02:43:20;;;;;;;15.77;4.78;;;17.30;99.90;;;;;;2250601;26;20035;-70
2024/04/09 02:44:20;;;;;;;16.40;5.07;;;17.30;99.90;;;;;;2243167;26;20077;-70
2024/04/09 02:45:21;;;;;;;20.42;5.65;;;17.30;99.90;;;;;;2247097;26;20014;-69
2024/04/09 02:46:22;;;;;;;15.70;4.35;;;17.30;99.90;;;;;;2241975;26;20030;-69
2024/04/09 02:47:23;;;;;;;19.83;4.68;;;17.30;99.90;;;;;;2241673;26;19999;-69
2024/04/09 02:48:24;;;;;;;16.73;4.68;;;17.30;99.90;;;;;;2245131;26;20010;-69
2024/04/09 02:49:25;;;;;;;14.77;4.40;;;17.30;99.90;;;;;;2244029;26;20302;-69
2024/04/09 02:50:26;;;;;;;13.57;4.45;;;17.20;99.90;;;;;;2243209;26;20097;-69
2024/04/09 02:51:26;;;;;;;12.68;3.97;;;17.20;99.90;;;;;;2244822;26;20455;-69
2024/04/09 02:52:27;;;;;;;15.70;5.35;;;17.30;99.90;;;;;;2240351;26;20462;-69
2024/04/09 02:53:27;;;;;;;18.63;4.57;;;17.20;99.90;;;;;;2243999;26;20343;-69
2024/04/09 02:54:28;;;;;;;16.10;4.30;;;17.20;99.90;;;;;;2246539;26;20761;-69
2024/04/09 02:55:28;;;;;;;17.30;4.63;;;17.20;99.90;;;;;;2242566;26;20332;-69
2024/04/09 02:56:30;;;;;;;13.55;3.97;;;17.20;99.90;;;;;;2244705;26;20042;-69
2024/04/09 02:57:31;;;;;;;15.68;4.75;;;17.20;99.90;;;;;;2244611;26;19995;-69
2024/04/09 02:58:32;;;;;;;16.08;4.97;;;17.20;99.90;;;;;;2243900;26;19999;-69
2024/04/09 02:59:34;;;;;;;16.08;4.80;;;17.20;99.90;;;;;;2244867;26;20011;-69
2024/04/09 03:00:38;;;;;;;16.98;4.30;;;17.20;99.90;;;;;;2243605;26;20014;-69
2024/04/09 03:01:39;;;;;;;16.45;4.05;;;17.20;99.90;;;;;;2244852;26;20014;-69
2024/04/09 03:02:39;;;;;;;14.88;3.97;;;17.20;99.90;;;;;;2243726;26;20031;-69
2024/04/09 03:03:40;;;;;;;14.10;4.30;;;17.10;99.90;;;;;;2245446;26;20427;-69
2024/04/09 03:04:41;;;;;;;18.10;5.47;;;17.10;99.90;;;;;;2244311;26;19995;-69
2024/04/09 03:05:41;;;;;;;15.07;4.85;;;17.10;99.90;;;;;;2245667;26;20035;-69
2024/04/09 03:06:42;;;;;;;17.42;4.88;;;17.10;99.90;;;;;;2245798;26;19996;-69
2024/04/09 03:07:44;;;;;;;15.05;4.68;;;17.10;99.90;;;;;;2245656;26;19994;-69
2024/04/09 03:08:45;;;;;;;11.60;3.90;;;17.10;99.90;;;;;;2243702;26;20077;-69
2024/04/09 03:09:45;;;;;;;12.30;3.83;;;17.10;99.90;;;;;;2244710;26;20004;-71
2024/04/09 03:10:46;;;;;;;16.02;4.25;;;17.00;99.90;;;;;;2244002;26;20010;-69
2024/04/09 03:11:46;;;;;;;20.55;4.85;;;17.00;99.90;;;;;;2249431;26;20000;-69
2024/04/09 03:12:47;;;;;;;17.20;4.72;;;17.00;99.90;;;;;;2244839;26;20492;-69
2024/04/09 03:13:49;;;;;;;12.10;4.43;;;17.00;99.90;;;;;;2243100;26;20443;-69
2024/04/09 03:14:51;;;;;;;17.85;4.63;;;17.00;99.90;;;;;;2245678;26;20026;-69
2024/04/09 03:15:52;;;;;;;15.10;5.10;;;17.00;99.90;;;;;;2244722;26;20010;-69
2024/04/09 03:16:52;;;;;;;14.32;4.30;;;17.00;99.90;;;;;;2244511;26;19991;-69
2024/04/09 03:17:53;;;;;;;17.30;5.45;;;17.00;99.90;;;;;;2243185;26;19992;-69
2024/04/09 03:18:53;;;;;;;18.25;5.07;;;17.00;99.90;;;;;;2248468;26;20511;-69
2024/04/09 03:19:54;;;;;;;16.88;5.10;;;17.00;99.90;;;;;;2246482;26;20007;-69
2024/04/09 03:20:58;;;;;;;17.45;4.80;;;17.00;99.90;;;;;;2239659;26;20997;-69
2024/04/09 03:21:59;;;;;;;19.88;4.72;;;17.00;99.90;;;;;;2244956;26;20042;-69
2024/04/09 03:22:59;;;;;;;11.65;4.60;;;17.00;99.90;;;;;;2242862;26;20014;-69
2024/04/09 03:24:00;;;;;;;14.05;4.63;;;17.00;99.90;;;;;;2244688;26;19998;-69
2024/04/09 03:25:00;;;;;;;18.08;4.32;;;17.00;99.90;;;;;;2243209;26;19999;-69
2024/04/09 03:26:01;;;;;;;11.57;4.55;;;17.00;99.90;;;;;;2245559;26;20488;-69
2024/04/09 03:27:02;;;;;;;18.52;4.88;;;17.00;99.90;;;;;;2245338;26;20022;-69
2024/04/09 03:28:03;;;;;;;18.20;4.70;;;17.00;99.90;;;;;;2243544;26;20003;-70
2024/04/09 03:29:03;;;;;;;12.00;4.15;;;16.90;99.90;;;;;;2242500;26;19995;-69
2024/04/09 03:30:05;;;;;;;12.55;4.45;;;16.90;99.90;;;;;;2245136;26;20491;-69
2024/04/09 03:31:06;;;;;;;17.13;4.85;;;16.90;99.90;;;;;;2244124;26;19999;-69
2024/04/09 03:32:06;;;;;;;14.65;4.63;;;16.90;99.90;;;;;;2243632;26;20455;-69
2024/04/09 03:33:07;;;;;;;15.60;4.20;;;16.90;99.90;;;;;;2241234;26;20070;-70
2024/04/09 03:34:08;;;;;;;19.25;6.00;;;16.90;99.90;;;;;;2243736;26;20593;-69
2024/04/09 03:35:09;;;;;;;18.08;5.28;;;16.90;99.90;;;;;;2244083;26;20348;-69
2024/04/09 03:36:10;;;;;;;15.45;4.60;;;16.90;99.90;;;;;;2248207;26;19999;-69
2024/04/09 03:37:10;;;;;;;15.95;6.07;;;16.90;99.90;;;;;;2246641;26;20589;-69
2024/04/09 03:38:11;;;;;;;16.33;5.15;;;16.90;99.90;;;;;;2242361;26;20420;-69
2024/04/09 03:39:12;;;;;;;19.65;5.53;;;16.90;99.90;;;;;;2242096;26;20085;-69
2024/04/09 03:40:13;;;;;;;13.98;4.75;;;16.90;99.90;;;;;;2243437;26;20019;-69
2024/04/09 03:41:13;;;;;;;16.60;4.63;;;16.90;99.90;;;;;;2243703;26;19999;-69
2024/04/09 03:42:14;;;;;;;16.95;5.53;;;16.90;99.90;;;;;;2244994;26;20011;-67
2024/04/09 03:43:14;;;;;;;14.70;4.50;;;16.80;99.90;;;;;;2245678;26;20040;-68
2024/04/09 03:44:15;;;;;;;15.40;4.88;;;16.90;99.90;;;;;;2246581;26;20087;-67
2024/04/09 03:45:16;;;;;;;17.60;5.70;;;16.80;99.90;;;;;;2246082;26;19995;-68
2024/04/09 03:46:16;;;;;;;14.10;4.43;;;16.80;99.90;;;;;;2244132;26;20012;-68
2024/04/09 03:47:17;;;;;;;17.02;5.28;;;16.80;99.90;;;;;;2249348;26;20006;-68
2024/04/09 03:48:17;;;;;;;16.55;4.85;;;16.80;99.90;;;;;;2249741;26;19999;-68
2024/04/09 03:49:18;;;;;;;15.05;5.07;;;16.80;99.90;;;;;;2243261;26;20013;-69
2024/04/09 03:50:18;;;;;;;13.45;4.25;;;16.80;99.90;;;;;;2245464;26;19995;-69
2024/04/09 03:51:19;;;;;;;12.93;4.82;;;16.80;99.90;;;;;;2245096;26;20010;-69
2024/04/09 03:52:20;;;;;;;19.23;4.70;;;16.80;99.90;;;;;;2245364;26;20444;-69
2024/04/09 03:53:20;;;;;;;14.10;4.10;;;16.80;99.90;;;;;;2241453;26;20468;-70
2024/04/09 03:54:21;;;;;;;18.77;4.45;;;16.80;99.90;;;;;;2245001;26;19991;-69
2024/04/09 03:55:21;;;;;;;16.27;4.45;;;16.80;99.90;;;;;;2245946;26;19991;-69
2024/04/09 03:56:22;;;;;;;16.95;5.10;;;16.70;99.90;;;;;;2243869;26;20008;-69
2024/04/09 03:57:22;;;;;;;13.45;5.05;;;16.80;99.90;;;;;;2243970;26;20939;-69
2024/04/09 03:58:26;;;;;;;14.65;4.20;;;16.80;99.90;;;;;;2248658;26;20022;-68
2024/04/09 03:59:27;;;;;;;15.50;4.65;;;16.70;99.90;;;;;;2245055;26;19995;-69
2024/04/09 04:00:27;;;;;;;14.48;4.20;;;16.70;99.90;;;;;;2243810;26;20000;-69
2024/04/09 04:01:28;;;;;;;14.52;4.05;;;16.70;99.90;;;;;;2245703;26;20018;-69
2024/04/09 04:02:28;;;;;;;16.35;4.32;;;16.80;99.90;;;;;;2244132;26;20006;-69
2024/04/09 04:03:31;;;;;;;16.42;5.15;;;16.70;99.90;;;;;;2247836;26;20007;-68
2024/04/09 04:04:32;;;;;;;14.27;3.90;;;16.70;99.90;;;;;;2245543;26;20455;-68
2024/04/09 04:05:32;;;;;;;18.05;4.35;;;16.70;99.90;;;;;;2244253;26;20384;-68
2024/04/09 04:06:33;;;;;;;12.48;4.35;;;16.70;99.90;;;;;;2245809;26;20324;-68
2024/04/09 04:07:33;;;;;;;14.38;4.68;;;16.70;99.90;;;;;;2248411;26;19995;-69
2024/04/09 04:08:39;;;;;;;15.25;4.20;;;16.70;99.90;;;;;;2250969;26;19995;-70
2024/04/09 04:09:40;;;;;;;13.60;4.07;;;16.70;99.90;;;;;;2244530;26;20007;-68
2024/04/09 04:10:40;;;;;;;15.82;4.85;;;16.70;99.90;;;;;;2244298;26;19999;-69
2024/04/09 04:11:41;;;;;;;10.18;3.83;;;16.80;99.90;;;;;;2242917;26;20002;-69
2024/04/09 04:12:41;;;;;;;12.05;3.70;;;16.70;99.90;;;;;;2243382;26;19999;-68
2024/04/09 04:13:42;;;;;;;14.43;3.75;;;16.70;99.90;;;;;;2242701;26;20007;-68
2024/04/09 04:14:45;;;;;;;14.65;3.83;;;16.70;99.90;;;;;;2246022;26;20002;-69
2024/04/09 04:15:45;;;;;;;16.05;3.58;;;16.80;99.90;;;;;;2244595;26;20512;-68
2024/04/09 04:16:46;;;;;;;9.75;3.50;;;16.70;99.90;;;;;;2247335;26;20421;-68
2024/04/09 04:17:46;;;;;;;12.60;3.35;;;16.80;99.90;;;;;;2244686;26;20014;-68
2024/04/09 04:18:48;;;;;;;11.88;3.55;;;16.80;99.90;;;;;;2246394;26;20002;-68
2024/04/09 04:19:49;;;;;;;11.10;3.67;;;16.80;99.90;;;;;;2243516;26;20004;-69
2024/04/09 04:20:56;;;;;;;8.70;3.95;;;16.80;99.90;;;;;;2244522;26;20006;-69
2024/04/09 04:21:57;;;;;;;15.45;3.70;;;16.80;99.90;;;;;;2245649;26;20011;-68
2024/04/09 04:22:57;;;;;;;13.40;3.60;;;16.80;99.90;;;;;;2247506;26;20007;-69
2024/04/09 04:23:59;;;;;;;9.88;3.33;;;16.80;99.90;;;;;;2243687;26;20014;-68
2024/04/09 04:24:59;;;;;;;12.25;3.50;;;16.80;99.90;;;;;;2243175;26;20014;-69
2024/04/09 04:26:04;;;;;;;12.73;3.65;;;16.80;99.90;;;;;;2243031;26;20006;-69
2024/04/09 04:27:05;;;;;;;11.90;4.07;;;16.80;99.90;;;;;;2244455;26;19999;-69
2024/04/09 04:28:06;;;;;;;9.88;3.28;;;16.80;99.90;;;;;;2242345;26;20879;-68
2024/04/09 04:29:08;;;;;;;7.63;3.45;;;16.80;99.90;;;;;;2243240;26;20016;-68
2024/04/09 04:30:09;;;;;;;9.55;4.07;;;16.80;99.90;;;;;;2246670;26;20450;-68
2024/04/09 04:31:17;;;;;;;8.77;2.90;;;16.80;99.90;;;;;;2245535;26;20068;-66
2024/04/09 04:32:18;;;;;;;9.57;3.03;;;16.80;99.90;;;;;;2243454;26;20053;-68
2024/04/09 04:33:19;;;;;;;9.93;3.20;;;16.80;99.90;;;;;;2245314;26;20031;-68
2024/04/09 04:34:20;;;;;;;9.73;3.13;;;16.80;99.90;;;;;;2244219;26;20069;-68
2024/04/09 04:35:20;;;;;;;9.55;2.80;;;16.80;99.90;;;;;;2246885;26;20427;-69
2024/04/09 04:36:21;;;;;;;6.03;2.67;;;16.80;99.90;;;;;;2241612;26;19999;-69
2024/04/09 04:37:22;;;;;;;9.80;2.65;;;16.80;99.90;;;;;;2244481;26;20007;-69
2024/04/09 04:38:23;;;;;;;10.65;3.17;;;16.80;99.90;;;;;;2243249;26;20008;-68
2024/04/09 04:39:26;;;;;;;6.63;2.63;;;16.80;99.90;;;;;;2243882;26;20441;-69
2024/04/09 04:40:27;;;;;;;10.85;3.17;;;16.80;99.90;;;;;;2246332;26;20006;-68
2024/04/09 04:41:27;;;;;;;8.70;3.05;;;16.80;99.90;;;;;;2246771;26;19999;-69
2024/04/09 04:42:28;;;;;;;9.23;2.85;;;16.80;99.90;;;;;;2244179;26;20340;-69
2024/04/09 04:43:28;;;;;;;9.88;3.00;;;16.80;99.90;;;;;;2273507;26;19998;-68
2024/04/09 04:44:29;;;;;;;9.77;3.10;;;16.80;99.90;;;;;;2272272;26;19997;-68
2024/04/09 04:45:31;;;;;;;8.57;2.70;;;16.80;99.90;;;;;;2244543;26;20043;-69
2024/04/09 04:46:31;;;;;;;11.13;2.88;;;16.80;99.90;;;;;;2249207;26;20410;-68
2024/04/09 04:47:32;;;;;;;7.15;2.40;;;16.90;99.90;;;;;;2244022;26;20091;-69
2024/04/09 04:48:33;;;;;;;8.85;2.60;;;16.90;99.90;;;;;;2244899;26;20015;-68
2024/04/09 04:49:33;;;;;;;9.48;2.88;;;16.90;99.90;;;;;;2245260;26;20458;-68
2024/04/09 04:50:34;;;;;;;9.38;2.97;;;16.90;99.90;;;;;;2247521;26;20347;-68
2024/04/09 04:51:35;;;;;;;10.45;2.63;;;16.90;99.90;;;;;;2244455;26;20021;-68
2024/04/09 04:52:35;;;;;;;9.60;2.50;;;16.90;99.90;;;;;;2246623;26;20011;-67
2024/04/09 04:53:36;;;;;;;8.32;3.00;;;16.90;99.90;;;;;;2240881;26;20012;-69
2024/04/09 04:54:36;;;;;;;7.60;2.47;;;16.90;99.90;;;;;;2245377;26;20014;-69
2024/04/09 04:55:37;;;;;;;8.38;2.92;;;16.90;99.90;;;;;;2241342;26;20451;-69
2024/04/09 04:56:37;;;;;;;10.23;2.63;;;16.90;99.90;;;;;;2243527;26;20479;-68
2024/04/09 04:57:38;;;;;;;6.05;2.53;;;16.90;99.90;;;;;;2245079;26;20429;-69
2024/04/09 04:58:38;;;;;;;10.05;2.92;;;16.90;99.90;;;;;;2243042;26;20011;-68
2024/04/09 04:59:39;;;;;;;8.80;2.63;;;16.90;99.90;;;;;;2241788;26;20017;-68
2024/04/09 05:00:39;;;;;;;8.55;2.47;;;16.90;99.90;;;;;;2243412;26;20013;-68
2024/04/09 05:01:40;;;;;;;11.27;3.30;;;16.90;99.90;;;;;;2247435;26;20350;-68
2024/04/09 05:02:41;;;;;;;7.38;2.80;;;16.90;99.90;;;;;;2246295;26;20013;-69
2024/04/09 05:03:41;;;;;;;13.38;3.40;;;16.90;99.90;;;;;;2249356;26;20014;-69
2024/04/09 05:04:42;;;;;;;8.73;2.55;;;16.90;99.90;;;;;;2251714;26;20034;-69
2024/04/09 05:05:42;;;;;;;11.70;3.00;;;16.90;99.90;;;;;;2245929;26;20002;-68
2024/04/09 05:06:43;;;;;;;9.02;3.30;;;16.90;99.90;;;;;;2245349;26;20036;-69
2024/04/09 05:07:43;;;;;;;10.77;3.05;;;16.90;99.90;;;;;;2242628;26;20010;-68
2024/04/09 05:08:44;;;;;;;13.00;2.80;;;16.90;99.90;;;;;;2248819;26;20006;-67
2024/04/09 05:09:45;;;;;;;11.73;3.58;;;16.90;99.90;;;;;;2251363;26;20038;-69
2024/04/09 05:10:46;;;;;;;11.02;2.75;;;16.90;99.90;;;;;;2245584;26;19999;-68
2024/04/09 05:11:46;;;;;;;6.07;2.20;;;16.90;99.90;;;;;;2246112;26;20083;-68
2024/04/09 05:12:51;;;;;;;10.57;2.40;;;16.90;99.90;;;;;;2246358;26;20206;-68
2024/04/09 05:13:52;;;;;;;10.18;2.65;;;16.90;99.90;;;;;;2243980;26;20003;-68
2024/04/09 05:14:53;;;;;;;7.53;2.42;;;16.90;99.90;;;;;;2245333;26;19999;-68